Time;durP1;ratioP1;P1;durP2;ratioP2;P2;SDS_P1;SDS_P2;PMS_P1;PMS_P2;Temp;Humidity;BMP_temperature;BMP_pressure;BME280_temperature;BME280_humidity;BME280_pressure;Samples;Min_cycle;Max_cycle;Signal;HPM_P1;HPM_P2
2022/06/20 00:00:34;;;;;;;;;;;;;;;;;;5135969;27;859;-67
2022/06/20 00:03:00;;;;;;;;;;;;;;;;;;5135989;27;995;-67
2022/06/20 00:05:26;;;;;;;;;;;;;;;;;;5134067;27;1386;-67
2022/06/20 00:07:52;;;;;;;;;;;;;;;;;;5135506;27;946;-68
2022/06/20 00:10:18;;;;;;;;;;;;;;;;;;5134993;27;907;-67
2022/06/20 00:12:44;;;;;;;;;;;;;;;;;;5135278;27;1970;-67
2022/06/20 00:15:19;;;;;;;;;;;;;;;;;;5116812;27;1333;-67
2022/06/20 00:17:44;;;;;;;;;;;;;;;;;;5135676;27;919;-66
2022/06/20 00:20:09;;;;;;;;;;;;;;;;;;5136005;27;990;-67
2022/06/20 00:22:35;;;;;;;;;;;;;;;;;;5135475;27;784;-67
2022/06/20 00:25:00;;;;;;;;;;;;;;;;;;5136564;27;1248;-69
2022/06/20 00:27:26;;;;;;;;;;;;;;;;;;5134728;27;911;-68
2022/06/20 00:29:51;;;;;;;;;;;;;;;;;;5134298;27;1414;-66
2022/06/20 00:32:16;;;;;;;;;;;;;;;;;;5134961;27;1910;-68
2022/06/20 00:34:41;;;;;;;;;;;;;;;;;;5135678;27;821;-66
2022/06/20 00:37:15;;;;;;;;;;;;;;;;;;5135052;27;954;-67
2022/06/20 00:39:40;;;;;;;;;;;;;;;;;;5135306;27;974;-66
2022/06/20 00:42:05;;;;;;;;;;;;;;;;;;5134041;27;908;-66
2022/06/20 00:44:33;;;;;;;;;;;;;;;;;;5132853;27;931;-66
2022/06/20 00:47:04;;;;;;;;;;;;;;;;;;5134540;27;773;-66
2022/06/20 00:49:31;;;;;;;;;;;;;;;;;;5133792;27;1153;-66
2022/06/20 00:52:12;;;;;;;;;;;;;;;;;;5132751;27;1968;-67
2022/06/20 00:54:51;;;;;;;;;;;;;;;;;;5133660;27;824;-66
2022/06/20 00:57:27;;;;;;;;;;;;;;;;;;5133542;27;987;-66
2022/06/20 00:59:57;;;;;;;;;;;;;;;;;;5134130;27;998;-66
2022/06/20 01:02:29;;;;;;;;;;;;;;;;;;5132115;27;1189;-66
2022/06/20 01:04:57;;;;;;;;;;;;;;;;;;5134207;27;804;-66
2022/06/20 01:07:26;;;;;;;;;;;;;;;;;;5131902;27;1210;-66
2022/06/20 01:09:54;;;;;;;;;;;;;;;;;;5132863;27;1190;-66
2022/06/20 01:12:21;;;;;;;;;;;;;;;;;;5131951;27;1901;-66
2022/06/20 01:14:47;;;;;;;;;;;;;;;;;;5133920;27;970;-66
2022/06/20 01:17:29;;;;;;;;;;;;;;;;;;5134039;27;820;-66
2022/06/20 01:19:55;;;;;;;;;;;;;;;;;;5132516;27;1300;-66
2022/06/20 01:22:27;;;;;;;;;;;;;;;;;;5133159;27;872;-67
2022/06/20 01:25:12;;;;;;;;;;;;;;;;;;5133881;27;852;-66
2022/06/20 01:27:41;;;;;;;;;;;;;;;;;;5133133;27;1269;-66
2022/06/20 01:30:07;;;;;;;;;;;;;;;;;;5132407;27;1355;-67
2022/06/20 01:32:33;;;;;;;;;;;;;;;;;;5132836;27;1976;-67
2022/06/20 01:35:01;;;;;;;;;;;;;;;;;;5134418;27;887;-66
2022/06/20 01:37:28;;;;;;;;;;;;;;;;;;5133087;27;864;-66
2022/06/20 01:39:56;;;;;;;;;;;;;;;;;;5133784;27;852;-66
2022/06/20 01:42:23;;;;;;;;;;;;;;;;;;5133305;27;939;-66
2022/06/20 01:44:50;;;;;;;;;;;;;;;;;;5131939;27;1217;-66
2022/06/20 01:47:16;;;;;;;;;;;;;;;;;;5133641;27;890;-66
2022/06/20 01:49:43;;;;;;;;;;;;;;;;;;5132357;27;1392;-66
2022/06/20 01:52:17;;;;;;;;;;;;;;;;;;5133883;27;1882;-66
2022/06/20 01:54:45;;;;;;;;;;;;;;;;;;5129151;27;1095;-66
2022/06/20 01:57:12;;;;;;;;;;;;;;;;;;5131195;27;1266;-66
2022/06/20 01:59:41;;;;;;;;;;;;;;;;;;5130219;27;1199;-66
2022/06/20 02:02:07;;;;;;;;;;;;;;;;;;5132117;27;1235;-66
2022/06/20 02:04:35;;;;;;;;;;;;;;;;;;5133178;27;801;-66
2022/06/20 02:07:01;;;;;;;;;;;;;;;;;;5131782;27;1502;-66
2022/06/20 02:09:27;;;;;;;;;;;;;;;;;;5133255;27;911;-66
2022/06/20 02:11:52;;;;;;;;;;;;;;;;;;5132650;27;1959;-67
2022/06/20 02:14:20;;;;;;;;;;;;;;;;;;5131974;27;1067;-66
2022/06/20 02:16:49;;;;;;;;;;;;;;;;;;5133463;27;915;-66
2022/06/20 02:19:27;;;;;;;;;;;;;;;;;;5133259;27;828;-66
2022/06/20 02:21:55;;;;;;;;;;;;;;;;;;5133424;27;757;-66
2022/06/20 02:24:21;;;;;;;;;;;;;;;;;;5131530;27;1471;-67
2022/06/20 02:26:49;;;;;;;;;;;;;;;;;;5132576;27;1045;-66
2022/06/20 02:29:22;;;;;;;;;;;;;;;;;;5132252;27;860;-66
2022/06/20 02:31:51;;;;;;;;;;;;;;;;;;5132117;27;1913;-67
2022/06/20 02:34:16;;;;;;;;;;;;;;;;;;5130570;27;1225;-66
2022/06/20 02:36:42;;;;;;;;;;;;;;;;;;5132450;27;943;-66
2022/06/20 02:39:07;;;;;;;;;;;;;;;;;;5132778;27;805;-67
2022/06/20 02:41:34;;;;;;;;;;;;;;;;;;5131645;27;1069;-66
2022/06/20 02:44:05;;;;;;;;;;;;;;;;;;5132662;27;816;-66
2022/06/20 02:46:31;;;;;;;;;;;;;;;;;;5131523;27;820;-66
2022/06/20 02:48:58;;;;;;;;;;;;;;;;;;5132132;27;903;-67
2022/06/20 02:51:28;;;;;;;;;;;;;;;;;;5131774;27;915;-66
2022/06/20 02:53:58;;;;;;;;;;;;;;;;;;5131938;27;1894;-66
2022/06/20 02:56:25;;;;;;;;;;;;;;;;;;5131386;27;1253;-66
2022/06/20 02:58:53;;;;;;;;;;;;;;;;;;5131854;27;922;-66
2022/06/20 03:01:21;;;;;;;;;;;;;;;;;;5131930;27;914;-66
2022/06/20 03:03:48;;;;;;;;;;;;;;;;;;5130870;27;1198;-66
2022/06/20 03:06:32;;;;;;;;;;;;;;;;;;5132006;27;1033;-66
2022/06/20 03:08:58;;;;;;;;;;;;;;;;;;5130415;27;1058;-67
2022/06/20 03:11:25;;;;;;;;;;;;;;;;;;5132080;27;888;-66
2022/06/20 03:13:51;;;;;;;;;;;;;;;;;;5132027;27;1969;-66
2022/06/20 03:16:17;;;;;;;;;;;;;;;;;;5131729;27;840;-66
2022/06/20 03:18:49;;;;;;;;;;;;;;;;;;5131324;27;886;-66
2022/06/20 03:21:17;;;;;;;;;;;;;;;;;;5132117;27;852;-66
2022/06/20 03:23:43;;;;;;;;;;;;;;;;;;5130281;27;824;-67
2022/06/20 03:26:11;;;;;;;;;;;;;;;;;;5130691;28;1214;-66
2022/06/20 03:28:37;;;;;;;;;;;;;;;;;;5131745;27;1007;-66
2022/06/20 03:31:03;;;;;;;;;;;;;;;;;;5131514;27;1086;-66
2022/06/20 03:33:29;;;;;;;;;;;;;;;;;;5131915;27;1973;-66
2022/06/20 03:35:56;;;;;;;;;;;;;;;;;;5131425;27;773;-66
2022/06/20 03:38:22;;;;;;;;;;;;;;;;;;5131299;27;812;-66
2022/06/20 03:40:47;;;;;;;;;;;;;;;;;;5131694;27;741;-66
2022/06/20 03:43:15;;;;;;;;;;;;;;;;;;5130178;27;1359;-66
2022/06/20 03:45:55;;;;;;;;;;;;;;;;;;5131272;27;1376;-66
2022/06/20 03:48:22;;;;;;;;;;;;;;;;;;5131406;27;1005;-66
2022/06/20 03:51:06;;;;;;;;;;;;;;;;;;5132224;27;828;-66
2022/06/20 03:53:46;;;;;;;;;;;;;;;;;;5131753;27;1898;-66
2022/06/20 03:56:26;;;;;;;;;;;;;;;;;;5132422;27;993;-66
2022/06/20 03:58:55;;;;;;;;;;;;;;;;;;5130867;27;1622;-66
2022/06/20 04:01:23;;;;;;;;;;;;;;;;;;5131762;27;819;-67
2022/06/20 04:04:21;;;;;;;;;;;;;;;;;;5130659;28;1264;-67
2022/06/20 04:06:52;;;;;;;;;;;;;;;;;;5097326;27;1505;-66
2022/06/20 04:12:14;;;;;;;;;;;;;;;;;;5132400;28;1905;-66
2022/06/20 04:14:55;;;;;;;;;;;;;;;;;;5132100;27;864;-66
2022/06/20 04:20:27;;;;;;;;;;;;;;;;;;5131641;27;682;-67
2022/06/20 04:22:54;;;;;;;;;;;;;;;;;;5131202;27;1006;-67
2022/06/20 04:25:24;;;;;;;;;;;;;;;;;;5130923;27;994;-67
2022/06/20 04:27:55;;;;;;;;;;;;;;;;;;5130230;27;1112;-67
2022/06/20 04:30:30;;;;;;;;;;;;;;;;;;5130273;27;1347;-67
2022/06/20 04:33:01;;;;;;;;;;;;;;;;;;5133213;27;1894;-66
2022/06/20 04:35:30;;;;;;;;;;;;;;;;;;5133264;27;1225;-67
2022/06/20 04:37:58;;;;;;;;;;;;;;;;;;5134713;27;888;-67
2022/06/20 04:40:33;;;;;;;;;;;;;;;;;;5134614;27;962;-67
2022/06/20 04:43:01;;;;;;;;;;;;;;;;;;5134952;27;953;-66
2022/06/20 04:45:30;;;;;;;;;;;;;;;;;;5134631;27;863;-67
2022/06/20 04:48:08;;;;;;;;;;;;;;;;;;5134962;27;1010;-67
2022/06/20 04:50:34;;;;;;;;;;;;;;;;;;5134396;27;990;-67
2022/06/20 04:53:05;;;;;;;;;;;;;;;;;;5134385;27;1952;-67
2022/06/20 04:55:30;;;;;;;;;;;;;;;;;;5134350;27;926;-67
2022/06/20 04:57:58;;;;;;;;;;;;;;;;;;5134263;27;855;-67
2022/06/20 05:00:26;;;;;;;;;;;;;;;;;;5133235;27;1227;-67
2022/06/20 05:02:53;;;;;;;;;;;;;;;;;;5132929;27;1317;-67
2022/06/20 05:05:21;;;;;;;;;;;;;;;;;;5132437;27;1132;-67
2022/06/20 05:07:47;;;;;;;;;;;;;;;;;;5134137;27;903;-67
2022/06/20 05:10:16;;;;;;;;;;;;;;;;;;5132742;27;1276;-67
2022/06/20 05:13:00;;;;;;;;;;;;;;;;;;5134298;27;1886;-67
2022/06/20 05:15:36;;;;;;;;;;;;;;;;;;5122988;27;1217;-67
2022/06/20 05:18:07;;;;;;;;;;;;;;;;;;5112066;28;1209;-67
2022/06/20 05:20:35;;;;;;;;;;;;;;;;;;5111967;28;1147;-67
2022/06/20 05:23:09;;;;;;;;;;;;;;;;;;5110906;28;1203;-67
2022/06/20 05:25:36;;;;;;;;;;;;;;;;;;5111871;28;1218;-67
2022/06/20 05:28:03;;;;;;;;;;;;;;;;;;5110768;28;1304;-67
2022/06/20 05:30:31;;;;;;;;;;;;;;;;;;5113615;28;1195;-67
2022/06/20 05:32:58;;;;;;;;;;;;;;;;;;5112929;28;1918;-66
2022/06/20 05:35:26;;;;;;;;;;;;;;;;;;5113676;28;907;-66
2022/06/20 05:37:57;;;;;;;;;;;;;;;;;;5112928;28;1258;-66
2022/06/20 05:40:33;;;;;;;;;;;;;;;;;;5113836;28;907;-66
2022/06/20 05:42:58;;;;;;;;;;;;;;;;;;5113188;28;909;-66
2022/06/20 05:45:24;;;;;;;;;;;;;;;;;;5114654;27;1115;-66
2022/06/20 05:47:51;;;;;;;;;;;;;;;;;;5128916;27;1179;-66
2022/06/20 05:50:26;;;;;;;;;;;;;;;;;;5130236;27;1115;-67
2022/06/20 05:52:52;;;;;;;;;;;;;;;;;;5133773;27;1890;-66
2022/06/20 05:55:22;;;;;;;;;;;;;;;;;;5131691;27;1671;-66
2022/06/20 05:57:48;;;;;;;;;;;;;;;;;;5132215;27;1367;-67
2022/06/20 06:00:19;;;;;;;;;;;;;;;;;;5132862;27;812;-66
2022/06/20 06:02:50;;;;;;;;;;;;;;;;;;5133124;27;844;-66
2022/06/20 06:05:33;;;;;;;;;;;;;;;;;;5132910;27;942;-66
2022/06/20 06:07:58;;;;;;;;;;;;;;;;;;5131080;27;1233;-66
2022/06/20 06:10:45;;;;;;;;;;;;;;;;;;5132603;27;950;-66
2022/06/20 06:13:17;;;;;;;;;;;;;;;;;;5132570;27;1901;-66
2022/06/20 06:16:46;;;;;;;;;;;;;;;;;;5132740;27;978;-66
2022/06/20 06:18:36;;;;;;;;;;;;;;;;;;5132193;27;799;-67
2022/06/20 06:21:01;;;;;;;;;;;;;;;;;;5130691;27;1209;-67
2022/06/20 06:23:27;;;;;;;;;;;;;;;;;;5132270;27;891;-66
2022/06/20 06:25:52;;;;;;;;;;;;;;;;;;5132624;27;1069;-66
2022/06/20 06:28:19;;;;;;;;;;;;;;;;;;5132605;27;1026;-67
2022/06/20 06:31:02;;;;;;;;;;;;;;;;;;5130623;27;1424;-66
2022/06/20 06:33:30;;;;;;;;;;;;;;;;;;5132292;27;1957;-66
2022/06/20 06:36:15;;;;;;;;;;;;;;;;;;5131143;27;1304;-66
2022/06/20 06:38:46;;;;;;;;;;;;;;;;;;5132372;27;994;-66
2022/06/20 06:41:19;;;;;;;;;;;;;;;;;;5131167;27;1161;-66
2022/06/20 06:43:45;;;;;;;;;;;;;;;;;;5130873;27;1347;-66
2022/06/20 06:46:13;;;;;;;;;;;;;;;;;;5130958;27;946;-66
2022/06/20 06:48:45;;;;;;;;;;;;;;;;;;5130538;27;1198;-66
2022/06/20 06:51:25;;;;;;;;;;;;;;;;;;5132077;27;930;-66
2022/06/20 06:53:55;;;;;;;;;;;;;;;;;;5131498;27;1949;-66
2022/06/20 06:56:25;;;;;;;;;;;;;;;;;;5131254;27;872;-66
2022/06/20 06:58:57;;;;;;;;;;;;;;;;;;5130545;27;1386;-66
2022/06/20 07:01:26;;;;;;;;;;;;;;;;;;5131344;27;844;-66
2022/06/20 07:03:55;;;;;;;;;;;;;;;;;;5131954;27;804;-67
2022/06/20 07:06:26;;;;;;;;;;;;;;;;;;5131109;27;784;-66
2022/06/20 07:08:59;;;;;;;;;;;;;;;;;;5131826;27;829;-66
2022/06/20 07:11:25;;;;;;;;;;;;;;;;;;5131017;27;918;-66
2022/06/20 07:13:57;;;;;;;;;;;;;;;;;;5130121;27;1968;-66
2022/06/20 07:16:25;;;;;;;;;;;;;;;;;;5130908;27;876;-66
2022/06/20 07:18:52;;;;;;;;;;;;;;;;;;5131476;27;974;-66
2022/06/20 07:21:18;;;;;;;;;;;;;;;;;;5130947;27;816;-66
2022/06/20 07:23:46;;;;;;;;;;;;;;;;;;5128495;27;1154;-66
2022/06/20 07:26:13;;;;;;;;;;;;;;;;;;5107903;28;1366;-66
2022/06/20 07:28:45;;;;;;;;;;;;;;;;;;5109985;28;1219;-66
2022/06/20 07:31:16;;;;;;;;;;;;;;;;;;5111671;28;1108;-66
2022/06/20 07:33:48;;;;;;;;;;;;;;;;;;5111742;28;1905;-66
2022/06/20 07:36:14;;;;;;;;;;;;;;;;;;5111837;28;946;-66
2022/06/20 07:38:39;;;;;;;;;;;;;;;;;;5110280;28;1201;-66
2022/06/20 07:41:18;;;;;;;;;;;;;;;;;;5111281;28;1048;-66
2022/06/20 07:43:49;;;;;;;;;;;;;;;;;;5109948;28;1190;-66
2022/06/20 07:46:19;;;;;;;;;;;;;;;;;;5110974;28;927;-66
2022/06/20 07:48:46;;;;;;;;;;;;;;;;;;5109365;28;1288;-66
2022/06/20 07:51:30;;;;;;;;;;;;;;;;;;5110904;28;930;-66
2022/06/20 07:53:58;;;;;;;;;;;;;;;;;;5110888;28;1963;-66
2022/06/20 07:56:35;;;;;;;;;;;;;;;;;;5110610;28;990;-66
2022/06/20 07:59:06;;;;;;;;;;;;;;;;;;5111183;28;805;-66
2022/06/20 08:01:48;;;;;;;;;;;;;;;;;;5110642;28;843;-66
2022/06/20 08:04:15;;;;;;;;;;;;;;;;;;5110974;28;900;-66
2022/06/20 08:06:47;;;;;;;;;;;;;;;;;;5114216;28;868;-66
2022/06/20 08:09:19;;;;;;;;;;;;;;;;;;5114827;27;1055;-66
2022/06/20 08:11:53;;;;;;;;;;;;;;;;;;5134909;27;1237;-66
2022/06/20 08:14:29;;;;;;;;;;;;;;;;;;5133590;27;1901;-66
2022/06/20 08:16:59;;;;;;;;;;;;;;;;;;5134309;27;1197;-66
2022/06/20 08:19:25;;;;;;;;;;;;;;;;;;5135097;27;794;-67
2022/06/20 08:21:57;;;;;;;;;;;;;;;;;;5135200;27;954;-66
2022/06/20 08:24:28;;;;;;;;;;;;;;;;;;5133067;27;1233;-66
2022/06/20 08:27:10;;;;;;;;;;;;;;;;;;5133246;27;1185;-66
2022/06/20 08:29:35;;;;;;;;;;;;;;;;;;5132970;27;1239;-66
2022/06/20 08:32:07;;;;;;;;;;;;;;;;;;5134700;27;1902;-66
2022/06/20 08:34:39;;;;;;;;;;;;;;;;;;5133094;27;1205;-66
2022/06/20 08:37:10;;;;;;;;;;;;;;;;;;5134618;27;768;-66
2022/06/20 08:39:44;;;;;;;;;;;;;;;;;;5134600;27;1002;-66
2022/06/20 08:42:09;;;;;;;;;;;;;;;;;;5134944;27;926;-66
2022/06/20 08:44:50;;;;;;;;;;;;;;;;;;5134453;27;892;-66
2022/06/20 08:47:15;;;;;;;;;;;;;;;;;;5134702;27;832;-66
2022/06/20 08:49:40;;;;;;;;;;;;;;;;;;5132892;27;905;-66
2022/06/20 08:52:24;;;;;;;;;;;;;;;;;;5134195;27;1949;-66
2022/06/20 08:54:57;;;;;;;;;;;;;;;;;;5134694;27;933;-66
2022/06/20 08:57:32;;;;;;;;;;;;;;;;;;5132807;27;1357;-66
2022/06/20 09:00:00;;;;;;;;;;;;;;;;;;5133360;27;1142;-67
2022/06/20 09:02:37;;;;;;;;;;;;;;;;;;5134328;27;749;-66
2022/06/20 09:05:11;;;;;;;;;;;;;;;;;;5133663;27;1174;-66
2022/06/20 09:07:39;;;;;;;;;;;;;;;;;;5134727;27;808;-66
2022/06/20 09:10:20;;;;;;;;;;;;;;;;;;5135138;27;895;-66
2022/06/20 09:12:48;;;;;;;;;;;;;;;;;;5133218;27;1959;-66
2022/06/20 09:15:13;;;;;;;;;;;;;;;;;;5134850;27;836;-66
2022/06/20 09:17:42;;;;;;;;;;;;;;;;;;5133622;27;979;-66
2022/06/20 09:20:15;;;;;;;;;;;;;;;;;;5134378;27;883;-66
2022/06/20 09:22:49;;;;;;;;;;;;;;;;;;5132458;27;918;-66
2022/06/20 09:25:21;;;;;;;;;;;;;;;;;;5133894;27;852;-66
2022/06/20 09:27:51;;;;;;;;;;;;;;;;;;5133622;27;1008;-66
2022/06/20 09:30:22;;;;;;;;;;;;;;;;;;5134097;27;1324;-66
2022/06/20 09:32:54;;;;;;;;;;;;;;;;;;5132548;27;1953;-66
2022/06/20 09:35:22;;;;;;;;;;;;;;;;;;5134035;27;839;-66
2022/06/20 09:37:56;;;;;;;;;;;;;;;;;;5133444;27;875;-66
2022/06/20 09:40:40;;;;;;;;;;;;;;;;;;5133414;27;966;-66
2022/06/20 09:43:14;;;;;;;;;;;;;;;;;;5132006;27;1478;-66
2022/06/20 09:45:43;;;;;;;;;;;;;;;;;;5131623;27;1279;-67
2022/06/20 09:48:15;;;;;;;;;;;;;;;;;;5133228;27;910;-67
2022/06/20 09:50:41;;;;;;;;;;;;;;;;;;5131334;27;1459;-66
2022/06/20 09:53:12;;;;;;;;;;;;;;;;;;5132480;27;1889;-66
2022/06/20 09:55:56;;;;;;;;;;;;;;;;;;5132630;27;863;-66
2022/06/20 09:58:44;;;;;;;;;;;;;;;;;;5132818;27;927;-66
2022/06/20 10:01:12;;;;;;;;;;;;;;;;;;5133011;27;1241;-66
2022/06/20 10:03:56;;;;;;;;;;;;;;;;;;5131409;27;1300;-66
2022/06/20 10:06:30;;;;;;;;;;;;;;;;;;5131289;27;1320;-66
2022/06/20 10:08:58;;;;;;;;;;;;;;;;;;5132938;27;908;-66
2022/06/20 10:11:47;;;;;;;;;;;;;;;;;;5132199;27;1231;-66
2022/06/20 10:14:15;;;;;;;;;;;;;;;;;;5123674;27;1902;-66
2022/06/20 10:16:57;;;;;;;;;;;;;;;;;;5132626;27;1005;-66
2022/06/20 10:19:44;;;;;;;;;;;;;;;;;;5132332;27;962;-66
2022/06/20 10:22:14;;;;;;;;;;;;;;;;;;5133059;27;864;-66
2022/06/20 10:24:55;;;;;;;;;;;;;;;;;;5132363;27;1188;-66
2022/06/20 10:27:38;;;;;;;;;;;;;;;;;;5131645;27;1014;-66
2022/06/20 10:30:06;;;;;;;;;;;;;;;;;;5132747;27;1261;-66
2022/06/20 10:32:50;;;;;;;;;;;;;;;;;;5132038;27;1981;-66
2022/06/20 10:35:17;;;;;;;;;;;;;;;;;;5132481;27;816;-66
2022/06/20 10:37:45;;;;;;;;;;;;;;;;;;5131403;27;1237;-66
2022/06/20 10:40:23;;;;;;;;;;;;;;;;;;5133452;27;847;-66
2022/06/20 10:42:54;;;;;;;;;;;;;;;;;;5131822;27;1233;-66
2022/06/20 10:45:19;;;;;;;;;;;;;;;;;;5132697;27;851;-66
2022/06/20 10:47:57;;;;;;;;;;;;;;;;;;5132454;27;856;-66
2022/06/20 10:50:22;;;;;;;;;;;;;;;;;;5132085;27;1243;-66
2022/06/20 10:52:48;;;;;;;;;;;;;;;;;;5132051;27;1906;-66
2022/06/20 10:55:27;;;;;;;;;;;;;;;;;;5131571;27;1189;-66
2022/06/20 10:58:00;;;;;;;;;;;;;;;;;;5132585;27;947;-66
2022/06/20 11:00:26;;;;;;;;;;;;;;;;;;5131528;27;1040;-66
2022/06/20 11:03:11;;;;;;;;;;;;;;;;;;5130229;27;1331;-66
2022/06/20 11:05:39;;;;;;;;;;;;;;;;;;5131601;27;860;-66
2022/06/20 11:08:24;;;;;;;;;;;;;;;;;;5131868;27;1096;-66
2022/06/20 11:11:07;;;;;;;;;;;;;;;;;;5131450;27;812;-66
2022/06/20 11:13:37;;;;;;;;;;;;;;;;;;5131459;27;1965;-66
2022/06/20 11:16:05;;;;;;;;;;;;;;;;;;5131982;27;1006;-66
2022/06/20 11:18:43;;;;;;;;;;;;;;;;;;5131336;27;777;-66
2022/06/20 11:21:27;;;;;;;;;;;;;;;;;;5132192;27;808;-65
2022/06/20 11:23:55;;;;;;;;;;;;;;;;;;5131792;27;827;-66
2022/06/20 11:26:21;;;;;;;;;;;;;;;;;;5129568;27;1364;-66
2022/06/20 11:28:58;;;;;;;;;;;;;;;;;;5131435;27;920;-66
2022/06/20 11:31:42;;;;;;;;;;;;;;;;;;5130829;27;1390;-66
2022/06/20 11:34:27;;;;;;;;;;;;;;;;;;5131702;27;1917;-66
2022/06/20 11:36:55;;;;;;;;;;;;;;;;;;5131303;27;1036;-66
2022/06/20 11:39:39;;;;;;;;;;;;;;;;;;5131420;27;820;-66
2022/06/20 11:42:45;;;;;;;;;;;;;;;;;;5136160;27;981;-66
2022/06/20 11:45:25;;;;;;;;;;;;;;;;;;5072612;28;1247;-66
2022/06/20 11:48:22;;;;;;;;;;;;;;;;;;5072269;28;1054;-66
2022/06/20 11:50:57;;;;;;;;;;;;;;;;;;5113716;27;1241;-66
2022/06/20 11:53:45;;;;;;;;;;;;;;;;;;5135664;27;1917;-66
2022/06/20 11:56:10;;;;;;;;;;;;;;;;;;5135595;27;1793;-66
2022/06/20 11:58:35;;;;;;;;;;;;;;;;;;5135753;27;888;-66
2022/06/20 12:01:11;;;;;;;;;;;;;;;;;;5135835;27;836;-66
2022/06/20 12:03:36;;;;;;;;;;;;;;;;;;5135589;27;812;-66
2022/06/20 12:06:06;;;;;;;;;;;;;;;;;;5135670;27;1089;-66
2022/06/20 12:08:40;;;;;;;;;;;;;;;;;;5134389;27;1245;-66
2022/06/20 12:11:24;;;;;;;;;;;;;;;;;;5135903;27;757;-66
2022/06/20 12:13:59;;;;;;;;;;;;;;;;;;5135943;27;1976;-66
2022/06/20 12:16:43;;;;;;;;;;;;;;;;;;5134946;27;876;-66
2022/06/20 12:24:46;;;;;;;;;;;;;;;;;;5134651;27;686;-66
2022/06/20 12:27:13;;;;;;;;;;;;;;;;;;5135121;27;881;-66
2022/06/20 12:29:39;;;;;;;;;;;;;;;;;;5133606;27;1160;-66
2022/06/20 12:32:10;;;;;;;;;;;;;;;;;;5135589;27;871;-66
2022/06/20 12:34:49;;;;;;;;;;;;;;;;;;5135166;27;1026;-66
2022/06/20 12:37:32;;;;;;;;;;;;;;;;;;5135677;27;871;-66
2022/06/20 12:40:01;;;;;;;;;;;;;;;;;;5134978;27;816;-66
2022/06/20 12:42:47;;;;;;;;;;;;;;;;;;5134938;27;899;-66
2022/06/20 12:45:24;;;;;;;;;;;;;;;;;;5134875;27;974;-66
2022/06/20 12:48:02;;;;;;;;;;;;;;;;;;5134650;27;1069;-66
2022/06/20 12:50:30;;;;;;;;;;;;;;;;;;5134341;27;941;-66
2022/06/20 12:53:10;;;;;;;;;;;;;;;;;;5134110;27;1901;-66
2022/06/20 12:55:54;;;;;;;;;;;;;;;;;;5134370;27;891;-66
2022/06/20 12:58:19;;;;;;;;;;;;;;;;;;5134616;27;1002;-66
2022/06/20 13:00:54;;;;;;;;;;;;;;;;;;5134249;27;921;-66
2022/06/20 13:03:52;;;;;;;;;;;;;;;;;;5134576;27;911;-66
2022/06/20 13:06:36;;;;;;;;;;;;;;;;;;5134305;27;829;-66
2022/06/20 13:09:02;;;;;;;;;;;;;;;;;;5134338;27;844;-66
2022/06/20 13:11:30;;;;;;;;;;;;;;;;;;5133882;27;746;-66
2022/06/20 13:14:14;;;;;;;;;;;;;;;;;;5132657;27;1909;-66
2022/06/20 13:16:59;;;;;;;;;;;;;;;;;;5132532;27;1177;-66
2022/06/20 13:19:48;;;;;;;;;;;;;;;;;;5122264;27;1172;-66
2022/06/20 13:22:25;;;;;;;;;;;;;;;;;;5104333;27;1067;-66
2022/06/20 13:24:53;;;;;;;;;;;;;;;;;;5132610;27;1301;-66
2022/06/20 13:27:25;;;;;;;;;;;;;;;;;;5134090;27;1082;-66
2022/06/20 13:29:50;;;;;;;;;;;;;;;;;;5133517;27;1055;-66
2022/06/20 13:32:26;;;;;;;;;;;;;;;;;;5133410;27;1913;-66
2022/06/20 13:34:57;;;;;;;;;;;;;;;;;;5134192;27;841;-66
2022/06/20 13:37:44;;;;;;;;;;;;;;;;;;5133716;27;844;-66
2022/06/20 13:40:18;;;;;;;;;;;;;;;;;;5132567;27;1331;-66
2022/06/20 13:42:53;;;;;;;;;;;;;;;;;;5133428;27;773;-66
2022/06/20 13:45:37;;;;;;;;;;;;;;;;;;5132153;27;1379;-66
2022/06/20 13:48:09;;;;;;;;;;;;;;;;;;5133666;27;856;-66
2022/06/20 13:50:46;;;;;;;;;;;;;;;;;;5133192;27;907;-66
2022/06/20 13:53:12;;;;;;;;;;;;;;;;;;5133333;27;1941;-66
2022/06/20 13:55:50;;;;;;;;;;;;;;;;;;5132947;27;801;-66
2022/06/20 13:58:21;;;;;;;;;;;;;;;;;;5131852;27;1183;-66
2022/06/20 14:00:57;;;;;;;;;;;;;;;;;;5132892;27;895;-66
2022/06/20 14:03:28;;;;;;;;;;;;;;;;;;5130779;27;1177;-66
2022/06/20 14:06:03;;;;;;;;;;;;;;;;;;5133211;27;933;-66
2022/06/20 14:08:30;;;;;;;;;;;;;;;;;;5132765;27;915;-66
2022/06/20 14:10:58;;;;;;;;;;;;;;;;;;5133046;27;701;-65
2022/06/20 14:13:30;;;;;;;;;;;;;;;;;;5131496;27;1964;-65
2022/06/20 14:16:14;;;;;;;;;;;;;;;;;;5131576;27;1182;-66
2022/06/20 14:18:45;;;;;;;;;;;;;;;;;;5133067;27;862;-65
2022/06/20 14:21:10;;;;;;;;;;;;;;;;;;5133402;27;1049;-65
2022/06/20 14:23:37;;;;;;;;;;;;;;;;;;5132890;27;840;-66
2022/06/20 14:26:08;;;;;;;;;;;;;;;;;;5131938;27;1196;-65
2022/06/20 14:28:36;;;;;;;;;;;;;;;;;;5132861;27;980;-65
2022/06/20 14:31:04;;;;;;;;;;;;;;;;;;5131532;27;1905;-66
2022/06/20 14:33:35;;;;;;;;;;;;;;;;;;5132688;27;1954;-66
2022/06/20 14:36:18;;;;;;;;;;;;;;;;;;5133396;27;820;-66
2022/06/20 14:38:47;;;;;;;;;;;;;;;;;;5132161;27;844;-66
2022/06/20 14:44:01;;;;;;;;;;;;;;;;;;5132648;27;672;-66
2022/06/20 14:46:35;;;;;;;;;;;;;;;;;;5130568;27;1339;-66
2022/06/20 14:49:08;;;;;;;;;;;;;;;;;;5131887;27;894;-66
2022/06/20 14:51:45;;;;;;;;;;;;;;;;;;5132071;27;907;-67
2022/06/20 14:54:29;;;;;;;;;;;;;;;;;;5132414;27;1960;-66
2022/06/20 14:57:11;;;;;;;;;;;;;;;;;;5132414;27;927;-67
2022/06/20 14:59:54;;;;;;;;;;;;;;;;;;5131888;27;907;-66
2022/06/20 15:02:35;;;;;;;;;;;;;;;;;;5131892;27;848;-66
2022/06/20 15:05:13;;;;;;;;;;;;;;;;;;5132415;27;812;-66
2022/06/20 15:07:50;;;;;;;;;;;;;;;;;;5131984;27;926;-66
2022/06/20 15:10:16;;;;;;;;;;;;;;;;;;5113073;27;1229;-66
2022/06/20 15:12:43;;;;;;;;;;;;;;;;;;5131672;27;1960;-66
2022/06/20 15:15:16;;;;;;;;;;;;;;;;;;5130134;27;1169;-66
2022/06/20 15:17:52;;;;;;;;;;;;;;;;;;5130128;27;1536;-66
2022/06/20 15:20:22;;;;;;;;;;;;;;;;;;5131770;27;1065;-65
2022/06/20 15:22:55;;;;;;;;;;;;;;;;;;5131718;27;923;-66
2022/06/20 15:25:20;;;;;;;;;;;;;;;;;;5131710;27;987;-66
2022/06/20 15:28:01;;;;;;;;;;;;;;;;;;5131515;27;1024;-66
2022/06/20 15:30:29;;;;;;;;;;;;;;;;;;5129551;27;1233;-66
2022/06/20 15:32:55;;;;;;;;;;;;;;;;;;5131518;27;1909;-66
2022/06/20 15:35:33;;;;;;;;;;;;;;;;;;5131561;27;848;-65
2022/06/20 15:37:59;;;;;;;;;;;;;;;;;;5131587;27;855;-65
2022/06/20 15:40:27;;;;;;;;;;;;;;;;;;5131084;27;1020;-67
2022/06/20 15:43:00;;;;;;;;;;;;;;;;;;5131304;27;1054;-66
2022/06/20 15:45:48;;;;;;;;;;;;;;;;;;5129909;27;1278;-67
2022/06/20 15:48:20;;;;;;;;;;;;;;;;;;5131590;27;796;-66
2022/06/20 15:50:57;;;;;;;;;;;;;;;;;;5131766;27;911;-66
2022/06/20 15:53:29;;;;;;;;;;;;;;;;;;5131678;27;1898;-64
2022/06/20 15:55:54;;;;;;;;;;;;;;;;;;5132296;27;852;-66
2022/06/20 15:58:19;;;;;;;;;;;;;;;;;;5131876;28;777;-66
2022/06/20 16:00:49;;;;;;;;;;;;;;;;;;5131840;27;817;-66
2022/06/20 16:03:14;;;;;;;;;;;;;;;;;;5131702;27;1013;-66
2022/06/20 16:05:56;;;;;;;;;;;;;;;;;;5131911;28;836;-66
2022/06/20 16:08:33;;;;;;;;;;;;;;;;;;5131661;27;895;-66
2022/06/20 16:11:25;;;;;;;;;;;;;;;;;;5132008;27;1170;-66
2022/06/20 16:13:50;;;;;;;;;;;;;;;;;;5127896;28;1906;-66
2022/06/20 16:16:17;;;;;;;;;;;;;;;;;;5131180;27;978;-66
2022/06/20 16:18:52;;;;;;;;;;;;;;;;;;5129761;28;1333;-66
2022/06/20 16:21:29;;;;;;;;;;;;;;;;;;5131149;27;827;-66
2022/06/20 16:23:56;;;;;;;;;;;;;;;;;;5131240;27;824;-66
2022/06/20 16:26:22;;;;;;;;;;;;;;;;;;5131973;27;851;-65
2022/06/20 16:29:08;;;;;;;;;;;;;;;;;;5133193;27;1298;-65
2022/06/20 16:31:43;;;;;;;;;;;;;;;;;;5132964;27;1324;-65
2022/06/20 16:34:28;;;;;;;;;;;;;;;;;;5135126;27;1902;-65
2022/06/20 16:37:09;;;;;;;;;;;;;;;;;;5135213;27;1109;-65
2022/06/20 16:39:35;;;;;;;;;;;;;;;;;;5133593;27;1236;-66
2022/06/20 16:42:16;;;;;;;;;;;;;;;;;;5135150;27;911;-66
2022/06/20 16:44:54;;;;;;;;;;;;;;;;;;5133593;27;1749;-66
2022/06/20 16:47:25;;;;;;;;;;;;;;;;;;5133731;27;1217;-66
2022/06/20 16:50:03;;;;;;;;;;;;;;;;;;5134748;27;986;-66
2022/06/20 16:52:48;;;;;;;;;;;;;;;;;;5134287;27;1902;-66
2022/06/20 16:55:16;;;;;;;;;;;;;;;;;;5102401;27;1251;-65
2022/06/20 16:57:46;;;;;;;;;;;;;;;;;;5134770;27;785;-65
2022/06/20 17:00:13;;;;;;;;;;;;;;;;;;5134424;27;781;-65
2022/06/20 17:02:52;;;;;;;;;;;;;;;;;;5132768;27;1571;-66
2022/06/20 17:05:33;;;;;;;;;;;;;;;;;;5133808;27;1189;-65
2022/06/20 17:07:58;;;;;;;;;;;;;;;;;;5134796;27;843;-65
2022/06/20 17:10:32;;;;;;;;;;;;;;;;;;5132792;27;1237;-65
2022/06/20 17:12:57;;;;;;;;;;;;;;;;;;5134400;27;1969;-66
2022/06/20 17:15:42;;;;;;;;;;;;;;;;;;5132686;27;1218;-65
2022/06/20 17:18:15;;;;;;;;;;;;;;;;;;5134714;27;856;-65
2022/06/20 17:21:19;;;;;;;;;;;;;;;;;;5134549;27;824;-65
2022/06/20 17:23:53;;;;;;;;;;;;;;;;;;5053204;28;1440;-66
2022/06/20 17:26:24;;;;;;;;;;;;;;;;;;5053674;28;1374;-65
2022/06/20 17:29:07;;;;;;;;;;;;;;;;;;5104971;27;940;-65
2022/06/20 17:31:35;;;;;;;;;;;;;;;;;;5122317;27;1209;-65
2022/06/20 17:34:19;;;;;;;;;;;;;;;;;;5112002;28;1898;-65
2022/06/20 17:36:47;;;;;;;;;;;;;;;;;;5111883;28;1450;-65
2022/06/20 17:39:29;;;;;;;;;;;;;;;;;;5114944;28;789;-65
2022/06/20 17:42:01;;;;;;;;;;;;;;;;;;5113954;27;920;-65
2022/06/20 17:44:37;;;;;;;;;;;;;;;;;;5113844;28;899;-65
2022/06/20 17:47:05;;;;;;;;;;;;;;;;;;5114834;28;1158;-65
2022/06/20 17:49:30;;;;;;;;;;;;;;;;;;5113687;28;958;-65
2022/06/20 17:51:56;;;;;;;;;;;;;;;;;;5114174;28;895;-65
2022/06/20 17:54:21;;;;;;;;;;;;;;;;;;5114241;28;1975;-65
2022/06/20 17:56:59;;;;;;;;;;;;;;;;;;5113709;28;820;-65
2022/06/20 17:59:24;;;;;;;;;;;;;;;;;;5114382;28;828;-65